Time;durP1;ratioP1;P1;durP2;ratioP2;P2;SDS_P1;SDS_P2;PMS_P1;PMS_P2;Temp;Humidity;BMP_temperature;BMP_pressure;BME280_temperature;BME280_humidity;BME280_pressure;Samples;Min_cycle;Max_cycle;Signal;HPM_P1;HPM_P2
2021/12/13 00:00:56;;;;;;;0.30;0.30;;;5.30;99.90;;;;;;4975543;28;20038;-65
2021/12/13 00:03:31;;;;;;;0.10;0.10;;;5.30;99.90;;;;;;4989734;28;20027;-63
2021/12/13 00:06:09;;;;;;;0.00;0.00;;;5.30;99.90;;;;;;4989954;28;20421;-65
2021/12/13 00:08:41;;;;;;;4.75;1.45;;;5.30;99.90;;;;;;4975117;28;20614;-65
2021/12/13 00:11:23;;;;;;;0.17;0.17;;;5.30;99.90;;;;;;4989560;28;20041;-65
2021/12/13 00:14:06;;;;;;;0.35;0.35;;;5.40;99.90;;;;;;4957937;28;20066;-65
2021/12/13 00:16:37;;;;;;;0.90;0.90;;;5.40;99.90;;;;;;4988550;28;20061;-65
2021/12/13 00:19:09;;;;;;;;;;;5.40;99.90;;;;;;4975345;28;20030;-65
2021/12/13 00:21:44;;;;;;;0.10;0.10;;;5.40;99.90;;;;;;4974656;28;20029;-65
2021/12/13 00:24:15;;;;;;;0.63;0.63;;;5.40;99.90;;;;;;4974970;28;20039;-64
2021/12/13 00:26:46;;;;;;;0.00;0.00;;;5.40;99.90;;;;;;4974744;28;20087;-65
2021/12/13 00:29:20;;;;;;;1.40;0.97;;;5.40;99.90;;;;;;4989550;28;20043;-65
2021/12/13 00:32:39;;;;;;;0.63;0.45;;;5.40;99.90;;;;;;4989327;28;20294;-65
2021/12/13 00:35:13;;;;;;;0.20;0.20;;;5.40;99.90;;;;;;4991146;28;20034;-65
2021/12/13 00:37:47;;;;;;;0.57;0.57;;;5.40;99.90;;;;;;4973905;28;20381;-65
2021/12/13 00:40:33;;;;;;;0.20;0.20;;;5.40;99.90;;;;;;4974507;28;20035;-65
2021/12/13 00:43:34;;;;;;;0.47;0.47;;;5.40;99.90;;;;;;4974710;28;20039;-65
2021/12/13 00:46:10;;;;;;;0.10;0.10;;;5.40;99.90;;;;;;4987243;28;20411;-65
2021/12/13 00:48:39;;;;;;;0.10;0.10;;;5.40;99.90;;;;;;4989167;28;20038;-64
2021/12/13 00:51:13;;;;;;;0.15;0.15;;;5.40;99.90;;;;;;4974831;28;20452;-64
2021/12/13 00:53:47;;;;;;;1.40;1.33;;;5.50;99.90;;;;;;4974249;28;20031;-64
2021/12/13 00:57:07;;;;;;;0.10;0.10;;;5.40;99.90;;;;;;4974177;28;20041;-64
2021/12/13 00:59:53;;;;;;;1.30;1.05;;;5.50;99.90;;;;;;4974368;28;20034;-64
2021/12/13 01:02:28;;;;;;;1.38;1.27;;;5.50;99.90;;;;;;4972844;28;20480;-64
2021/12/13 01:05:11;;;;;;;0.10;0.10;;;5.50;99.90;;;;;;4988654;28;20036;-65
2021/12/13 01:08:24;;;;;;;2.67;0.85;;;5.50;99.90;;;;;;4988668;28;20487;-64
2021/12/13 01:10:54;;;;;;;1.30;1.20;;;5.50;99.90;;;;;;4979265;28;20071;-64
2021/12/13 01:13:34;;;;;;;2.28;0.77;;;5.50;99.90;;;;;;4973818;28;20081;-64
2021/12/13 01:19:51;;;;;;;0.08;0.08;;;5.50;99.90;;;;;;4974058;28;20395;-64
2021/12/13 01:22:53;;;;;;;0.55;0.55;;;5.50;99.90;;;;;;4983164;28;20079;-64
2021/12/13 01:28:15;;;;;;;0.60;0.60;;;5.50;99.90;;;;;;4973848;28;20049;-64
2021/12/13 01:30:55;;;;;;;1.58;1.48;;;5.50;99.90;;;;;;4973662;28;20035;-64
2021/12/13 01:33:24;;;;;;;0.40;0.40;;;5.50;99.90;;;;;;4973657;28;20066;-64
2021/12/13 01:35:54;;;;;;;0.00;0.00;;;5.50;99.90;;;;;;4988517;28;20555;-65
2021/12/13 01:38:33;;;;;;;0.00;0.00;;;5.50;99.90;;;;;;4973844;28;20046;-64
2021/12/13 01:41:09;;;;;;;0.20;0.20;;;5.50;99.90;;;;;;4987701;28;20535;-64
2021/12/13 01:43:48;;;;;;;0.10;0.10;;;5.50;99.90;;;;;;4973357;28;20726;-64
2021/12/13 01:46:16;;;;;;;0.45;0.45;;;5.50;99.90;;;;;;4987336;28;20061;-64
2021/12/13 01:48:46;;;;;;;0.10;0.10;;;5.50;99.90;;;;;;4973406;28;20085;-64
2021/12/13 01:51:16;;;;;;;1.67;1.48;;;5.50;99.90;;;;;;4973601;28;20035;-64
2021/12/13 01:53:59;;;;;;;0.10;0.10;;;5.40;99.90;;;;;;4973720;28;20117;-64
2021/12/13 01:56:55;;;;;;;0.30;0.30;;;5.40;99.90;;;;;;4987870;28;20043;-65
2021/12/13 02:00:18;;;;;;;1.70;1.60;;;5.50;99.90;;;;;;4972081;28;20034;-65
2021/12/13 02:02:36;;;;;;;1.55;1.45;;;5.40;99.90;;;;;;4982049;28;20488;-64
2021/12/13 02:05:26;;;;;;;0.08;0.08;;;5.50;99.90;;;;;;4972038;28;20118;-64
2021/12/13 02:08:12;;;;;;;1.55;1.15;;;5.50;99.90;;;;;;4973585;28;20041;-65
2021/12/13 02:10:43;;;;;;;0.55;0.55;;;5.50;99.90;;;;;;4971974;28;20393;-64
2021/12/13 02:13:20;;;;;;;0.10;0.10;;;5.50;99.90;;;;;;4973247;28;20026;-64
2021/12/13 02:19:00;;;;;;;0.25;0.25;;;5.60;99.90;;;;;;4971966;28;20047;-64
2021/12/13 02:21:33;;;;;;;1.15;1.13;;;5.60;99.90;;;;;;4973282;28;20039;-65
2021/12/13 02:24:08;;;;;;;0.55;0.55;;;5.60;99.90;;;;;;4988056;28;20027;-64
2021/12/13 02:26:47;;;;;;;0.10;0.10;;;5.60;99.90;;;;;;4973064;28;20088;-64
2021/12/13 02:29:18;;;;;;;0.75;0.75;;;5.60;99.90;;;;;;4973250;28;20512;-64
2021/12/13 02:31:46;;;;;;;9.10;3.05;;;5.60;99.90;;;;;;4972961;28;20392;-64
2021/12/13 02:34:17;;;;;;;0.38;0.38;;;5.60;99.90;;;;;;4988266;28;20035;-65
2021/12/13 02:36:53;;;;;;;0.10;0.10;;;5.60;99.90;;;;;;4987540;28;20042;-64
2021/12/13 02:39:30;;;;;;;0.73;0.73;;;5.70;99.90;;;;;;4973096;28;20372;-65
2021/12/13 02:41:57;;;;;;;0.35;0.35;;;5.70;99.90;;;;;;4972930;28;20483;-65
2021/12/13 02:44:40;;;;;;;0.35;0.35;;;5.80;99.90;;;;;;4988069;28;20062;-66
2021/12/13 02:47:32;;;;;;;0.20;0.20;;;5.90;99.90;;;;;;4987892;28;20049;-65
2021/12/13 02:49:59;;;;;;;0.10;0.10;;;5.90;99.90;;;;;;4973055;28;20109;-65
2021/12/13 02:52:26;;;;;;;0.75;0.75;;;5.80;99.90;;;;;;4973033;28;20388;-65
2021/12/13 02:55:03;;;;;;;1.98;0.65;;;5.80;99.90;;;;;;4973204;28;20089;-65
2021/12/13 02:57:34;;;;;;;0.63;0.50;;;5.80;99.90;;;;;;4974370;28;20031;-65
2021/12/13 03:00:12;;;;;;;;;;;5.80;99.90;;;;;;4976864;28;20069;-65
2021/12/13 03:02:43;;;;;;;2.42;2.17;;;5.80;99.90;;;;;;4976199;28;19920;-65
2021/12/13 03:05:19;;;;;;;0.40;0.40;;;5.80;99.90;;;;;;4974963;28;20039;-64
2021/12/13 03:07:51;;;;;;;4.38;0.65;;;5.70;99.90;;;;;;4990650;28;20035;-64
2021/12/13 03:10:35;;;;;;;0.00;0.00;;;5.70;99.90;;;;;;4976245;28;20035;-64
2021/12/13 03:13:02;;;;;;;0.00;0.00;;;5.70;99.90;;;;;;4991135;28;20030;-64
2021/12/13 03:15:32;;;;;;;0.10;0.10;;;5.80;99.90;;;;;;4975917;28;20480;-64
2021/12/13 03:18:17;;;;;;;0.30;0.30;;;5.70;99.90;;;;;;4976518;28;20033;-64
2021/12/13 03:21:19;;;;;;;0.15;0.15;;;5.70;99.90;;;;;;4976146;28;20094;-64
2021/12/13 03:24:18;;;;;;;0.40;0.32;;;5.70;99.90;;;;;;4989379;28;20046;-64
2021/12/13 03:27:04;;;;;;;0.50;0.50;;;5.70;99.90;;;;;;4990786;28;20051;-64
2021/12/13 03:29:44;;;;;;;0.93;0.90;;;5.70;99.90;;;;;;4989298;28;20069;-64
2021/12/13 03:32:15;;;;;;;1.45;0.88;;;5.70;99.90;;;;;;4990643;28;20045;-64
2021/12/13 03:35:18;;;;;;;0.32;0.32;;;5.70;99.90;;;;;;4975858;28;20502;-65
2021/12/13 03:37:44;;;;;;;1.40;0.80;;;5.70;99.90;;;;;;4986157;28;20053;-64
2021/12/13 03:40:20;;;;;;;0.20;0.20;;;5.70;99.90;;;;;;4990602;28;20030;-64
2021/12/13 03:42:57;;;;;;;0.43;0.43;;;5.70;99.90;;;;;;4975463;28;20582;-64
2021/12/13 03:45:34;;;;;;;3.95;2.17;;;5.70;99.90;;;;;;4975290;28;20131;-64
2021/12/13 03:48:04;;;;;;;0.08;0.08;;;5.70;99.90;;;;;;4975429;28;20110;-63
2021/12/13 03:50:37;;;;;;;0.45;0.45;;;5.70;99.90;;;;;;4989891;28;20056;-65
2021/12/13 03:53:13;;;;;;;0.10;0.10;;;5.70;99.90;;;;;;4975473;28;20039;-65
2021/12/13 03:55:43;;;;;;;0.17;0.17;;;5.70;99.90;;;;;;4975167;28;20045;-63
2021/12/13 03:58:14;;;;;;;0.28;0.28;;;5.70;99.90;;;;;;4975394;28;20495;-63
2021/12/13 04:00:48;;;;;;;2.70;0.97;;;5.70;99.90;;;;;;4989667;28;20070;-64
2021/12/13 04:03:17;;;;;;;0.32;0.32;;;5.80;99.90;;;;;;4989937;28;20070;-64
2021/12/13 04:05:43;;;;;;;2.53;2.30;;;5.70;99.90;;;;;;4989815;28;20038;-64
2021/12/13 04:08:12;;;;;;;0.25;0.25;;;5.70;99.90;;;;;;4975330;28;20035;-64
2021/12/13 04:10:51;;;;;;;0.10;0.10;;;5.70;99.90;;;;;;4989859;28;20396;-64
2021/12/13 04:13:25;;;;;;;0.00;0.00;;;5.70;99.90;;;;;;4974946;28;20166;-64
2021/12/13 04:16:15;;;;;;;0.32;0.32;;;5.70;99.90;;;;;;4974883;28;20046;-64
2021/12/13 04:19:10;;;;;;;0.20;0.20;;;5.80;99.90;;;;;;4988859;28;20039;-64
2021/12/13 04:22:03;;;;;;;1.33;1.23;;;5.80;99.90;;;;;;4973600;28;20038;-64
2021/12/13 04:24:41;;;;;;;0.15;0.15;;;5.80;99.90;;;;;;4988822;28;20109;-64
2021/12/13 04:27:18;;;;;;;1.35;1.20;;;5.80;99.90;;;;;;4989698;28;20360;-64
2021/12/13 04:29:48;;;;;;;0.95;0.90;;;5.80;99.90;;;;;;4974854;28;20030;-64
2021/12/13 04:32:32;;;;;;;0.10;0.10;;;5.80;99.90;;;;;;4974899;28;20092;-65
2021/12/13 04:35:03;;;;;;;0.20;0.20;;;5.80;99.90;;;;;;4974911;28;20026;-64
2021/12/13 04:37:35;;;;;;;;;;;5.80;99.90;;;;;;4975205;28;20034;-64
2021/12/13 04:40:17;;;;;;;0.10;0.10;;;5.80;99.90;;;;;;4989352;28;20385;-64
2021/12/13 04:42:47;;;;;;;0.45;0.45;;;5.80;99.90;;;;;;4974211;28;20127;-64
2021/12/13 04:45:21;;;;;;;0.10;0.10;;;5.80;99.90;;;;;;4973825;28;20046;-64
2021/12/13 04:48:09;;;;;;;14.63;2.40;;;5.80;99.90;;;;;;4987069;28;20031;-64
2021/12/13 04:50:51;;;;;;;0.20;0.20;;;5.80;99.90;;;;;;4972606;28;20038;-64
2021/12/13 04:53:25;;;;;;;0.10;0.10;;;5.80;99.90;;;;;;4984663;28;20431;-65
2021/12/13 04:55:54;;;;;;;0.15;0.15;;;5.80;99.90;;;;;;4974009;28;20035;-63
2021/12/13 04:58:21;;;;;;;7.97;1.58;;;5.70;99.90;;;;;;4972008;28;20034;-63
2021/12/13 05:00:55;;;;;;;0.00;0.00;;;5.70;99.90;;;;;;4953552;29;20109;-63
2021/12/13 05:03:27;;;;;;;0.20;0.20;;;5.70;99.90;;;;;;4953743;29;20039;-64
2021/12/13 05:05:53;;;;;;;0.10;0.10;;;5.70;99.90;;;;;;4953441;29;20069;-66
2021/12/13 05:08:21;;;;;;;1.83;1.05;;;5.70;99.90;;;;;;4954791;28;20063;-64
2021/12/13 05:10:50;;;;;;;2.72;1.10;;;5.70;99.90;;;;;;4954756;28;20114;-64
2021/12/13 05:13:20;;;;;;;0.00;0.00;;;5.70;99.90;;;;;;4953561;29;20114;-64
2021/12/13 05:16:00;;;;;;;0.63;0.63;;;5.70;99.90;;;;;;4953599;29;20404;-63
2021/12/13 05:18:31;;;;;;;0.38;0.38;;;5.80;99.90;;;;;;4969513;28;20033;-64
2021/12/13 05:21:12;;;;;;;1.00;1.00;;;5.70;99.90;;;;;;4959544;28;20039;-64
2021/12/13 05:24:01;;;;;;;0.55;0.55;;;5.80;99.90;;;;;;4988099;28;20026;-65
2021/12/13 05:26:54;;;;;;;0.30;0.28;;;5.80;99.90;;;;;;4973728;28;20035;-64
2021/12/13 05:29:40;;;;;;;0.00;0.00;;;5.80;99.90;;;;;;4973752;28;20492;-65
2021/12/13 05:32:34;;;;;;;0.10;0.10;;;5.80;99.90;;;;;;4974014;28;20038;-64
2021/12/13 05:35:14;;;;;;;1.13;0.55;;;5.90;99.90;;;;;;4988661;28;20034;-64
2021/12/13 05:37:49;;;;;;;4.45;0.98;;;5.80;99.90;;;;;;4987641;28;20061;-63
2021/12/13 05:40:26;;;;;;;0.15;0.15;;;5.80;99.90;;;;;;4988339;28;20046;-64
2021/12/13 05:42:57;;;;;;;0.30;0.30;;;5.80;99.90;;;;;;4988168;28;20027;-63
2021/12/13 05:45:36;;;;;;;0.47;0.47;;;5.70;99.90;;;;;;4988146;28;20123;-63
2021/12/13 05:48:11;;;;;;;0.52;0.52;;;5.80;99.90;;;;;;4973776;28;20039;-63
2021/12/13 05:50:59;;;;;;;0.40;0.40;;;5.90;99.90;;;;;;4973471;28;20068;-64
2021/12/13 05:53:32;;;;;;;0.85;0.85;;;5.90;99.90;;;;;;4971948;28;20066;-63
2021/12/13 05:56:07;;;;;;;0.22;0.22;;;5.90;99.90;;;;;;4971643;28;20067;-63
2021/12/13 05:58:57;;;;;;;0.10;0.10;;;5.90;99.90;;;;;;4956088;28;20023;-64
2021/12/13 06:01:50;;;;;;;0.32;0.32;;;5.90;99.90;;;;;;4971402;28;20039;-64
2021/12/13 06:04:45;;;;;;;0.73;0.73;;;5.90;99.90;;;;;;4971203;28;20038;-64
2021/12/13 06:07:34;;;;;;;0.90;0.90;;;5.80;99.90;;;;;;4968961;28;20046;-63
2021/12/13 06:10:15;;;;;;;0.82;0.82;;;6.00;99.90;;;;;;4967280;28;20049;-65
2021/12/13 06:13:09;;;;;;;0.40;0.40;;;6.00;99.90;;;;;;4972827;28;20106;-65
2021/12/13 06:15:43;;;;;;;0.93;0.93;;;6.00;99.90;;;;;;4962538;28;20442;-64
2021/12/13 06:18:23;;;;;;;0.35;0.35;;;5.90;99.90;;;;;;4954925;28;20067;-64
2021/12/13 06:21:06;;;;;;;0.13;0.13;;;5.90;99.90;;;;;;4982801;28;20038;-64
2021/12/13 06:23:34;;;;;;;1.08;0.98;;;5.90;99.90;;;;;;4971904;28;20042;-64
2021/12/13 06:26:06;;;;;;;0.98;0.90;;;5.80;99.90;;;;;;4972893;28;20396;-65
2021/12/13 06:28:37;;;;;;;0.05;0.05;;;5.90;99.90;;;;;;4972194;28;20023;-64
2021/12/13 06:31:15;;;;;;;0.80;0.80;;;5.80;99.90;;;;;;4972902;28;20352;-65
2021/12/13 06:34:10;;;;;;;1.85;1.75;;;5.80;99.90;;;;;;4968720;28;20286;-64
2021/12/13 06:36:41;;;;;;;4.03;0.77;;;5.90;99.90;;;;;;4960109;28;20039;-64
2021/12/13 06:39:15;;;;;;;0.10;0.10;;;5.90;99.90;;;;;;4972035;28;20039;-64
2021/12/13 06:41:45;;;;;;;3.80;3.45;;;5.90;99.90;;;;;;4970845;28;20043;-64
2021/12/13 06:44:35;;;;;;;0.22;0.22;;;5.90;99.90;;;;;;4965941;28;20107;-64
2021/12/13 06:47:19;;;;;;;1.88;1.75;;;5.90;99.90;;;;;;4966832;28;20053;-64
2021/12/13 06:49:56;;;;;;;0.40;0.40;;;5.90;99.90;;;;;;4975172;28;20502;-64
2021/12/13 06:52:32;;;;;;;0.25;0.25;;;5.90;99.90;;;;;;4974174;28;20046;-64
2021/12/13 06:55:11;;;;;;;1.20;1.13;;;5.90;99.90;;;;;;4959661;28;20431;-64
2021/12/13 06:57:41;;;;;;;0.10;0.10;;;5.90;99.90;;;;;;4975972;28;20078;-64
2021/12/13 07:00:32;;;;;;;0.47;0.47;;;5.90;99.90;;;;;;4974780;28;20027;-63
2021/12/13 07:03:03;;;;;;;0.00;0.00;;;5.90;99.90;;;;;;4976304;28;20395;-63
2021/12/13 07:05:40;;;;;;;0.10;0.10;;;5.90;99.90;;;;;;4975924;28;20137;-64
2021/12/13 07:08:25;;;;;;;0.10;0.10;;;5.90;99.90;;;;;;4976566;28;20031;-64
2021/12/13 07:10:56;;;;;;;0.47;0.35;;;5.90;99.90;;;;;;4974823;28;20066;-64
2021/12/13 07:13:34;;;;;;;;;;;5.90;99.90;;;;;;4975930;28;20039;-65
2021/12/13 07:16:13;;;;;;;0.20;0.20;;;5.90;99.90;;;;;;4975392;28;20371;-64
2021/12/13 07:19:01;;;;;;;0.88;0.38;;;5.90;99.90;;;;;;4975429;28;20038;-66
2021/12/13 07:21:54;;;;;;;1.40;1.00;;;5.90;99.90;;;;;;4974079;28;20027;-64
2021/12/13 07:24:34;;;;;;;0.50;0.45;;;5.90;99.90;;;;;;4990781;28;20037;-64
2021/12/13 07:27:28;;;;;;;1.33;1.23;;;5.90;99.90;;;;;;4974427;28;20130;-63
2021/12/13 07:29:59;;;;;;;3.10;1.40;;;5.90;99.90;;;;;;4975604;28;20085;-63
2021/12/13 07:32:35;;;;;;;2.20;2.00;;;5.90;99.90;;;;;;4975744;28;20054;-64
2021/12/13 07:35:12;;;;;;;0.28;0.28;;;5.90;99.90;;;;;;4975416;28;20030;-64
2021/12/13 07:38:18;;;;;;;0.00;0.00;;;5.90;99.90;;;;;;4975438;28;20392;-64
2021/12/13 07:41:04;;;;;;;0.63;0.63;;;5.80;99.90;;;;;;4975407;28;20524;-64
2021/12/13 07:43:38;;;;;;;0.05;0.05;;;5.90;99.90;;;;;;4975090;28;20039;-64
2021/12/13 07:46:08;;;;;;;1.55;1.05;;;6.00;99.90;;;;;;4975159;28;20089;-63
2021/12/13 07:48:39;;;;;;;0.10;0.10;;;6.00;99.90;;;;;;4975711;28;20031;-63
2021/12/13 07:51:29;;;;;;;0.50;0.50;;;6.00;99.90;;;;;;4975145;28;20077;-63
2021/12/13 07:53:58;;;;;;;0.75;0.75;;;6.00;99.90;;;;;;4975186;28;20038;-64
2021/12/13 07:56:37;;;;;;;0.08;0.08;;;6.00;99.90;;;;;;4975539;28;20118;-64
2021/12/13 07:59:29;;;;;;;0.65;0.65;;;6.10;99.90;;;;;;4973981;28;20550;-64
2021/12/13 08:02:26;;;;;;;2.22;1.75;;;6.20;99.90;;;;;;4974992;28;20129;-63
2021/12/13 08:05:08;;;;;;;0.30;0.30;;;6.20;99.90;;;;;;4974164;28;20113;-64
2021/12/13 08:07:49;;;;;;;0.68;0.40;;;6.30;99.90;;;;;;4975185;28;20035;-63
2021/12/13 08:10:31;;;;;;;0.13;0.13;;;6.20;99.90;;;;;;4975576;28;20055;-64
2021/12/13 08:13:09;;;;;;;0.10;0.10;;;6.20;99.90;;;;;;4974936;28;20554;-65
2021/12/13 08:15:39;;;;;;;0.38;0.38;;;6.30;99.90;;;;;;4975339;28;20228;-65
2021/12/13 08:18:30;;;;;;;0.30;0.30;;;6.30;99.90;;;;;;4975142;28;20034;-65
2021/12/13 08:21:20;;;;;;;3.05;0.75;;;6.30;99.90;;;;;;4973675;28;20431;-65
2021/12/13 08:23:56;;;;;;;14.27;1.50;;;6.30;99.90;;;;;;4974901;28;20483;-65
2021/12/13 08:26:41;;;;;;;0.20;0.20;;;6.30;99.90;;;;;;4974022;28;20445;-64
2021/12/13 08:29:32;;;;;;;1.80;1.70;;;6.30;99.90;;;;;;4975033;28;20037;-64
2021/12/13 08:32:19;;;;;;;0.60;0.50;;;6.30;99.90;;;;;;4974687;28;20034;-65
2021/12/13 08:34:57;;;;;;;0.10;0.10;;;6.20;99.90;;;;;;4973659;28;20109;-64
2021/12/13 08:37:38;;;;;;;0.20;0.20;;;6.30;99.90;;;;;;4973582;28;20023;-65
2021/12/13 08:40:18;;;;;;;0.30;0.30;;;6.20;99.90;;;;;;4973142;28;20561;-65
2021/12/13 08:42:46;;;;;;;0.20;0.20;;;6.20;99.90;;;;;;4958280;28;20046;-63
2021/12/13 08:45:38;;;;;;;0.77;0.65;;;6.30;99.90;;;;;;4974187;28;20047;-65
2021/12/13 08:48:13;;;;;;;0.82;0.82;;;6.30;99.90;;;;;;4974558;28;20503;-65
2021/12/13 08:50:50;;;;;;;0.10;0.10;;;6.30;99.90;;;;;;4974614;28;20035;-64
2021/12/13 08:53:29;;;;;;;0.20;0.20;;;6.30;99.90;;;;;;4972943;28;20033;-65
2021/12/13 08:56:07;;;;;;;0.63;0.63;;;6.40;99.90;;;;;;4987533;28;20042;-65
2021/12/13 08:58:34;;;;;;;5.72;0.85;;;6.30;99.90;;;;;;4973101;28;20073;-65
2021/12/13 09:01:13;;;;;;;0.28;0.28;;;6.30;99.90;;;;;;4956813;28;20522;-65
2021/12/13 09:03:44;;;;;;;0.10;0.10;;;6.30;99.90;;;;;;4972835;28;20031;-63
2021/12/13 09:06:19;;;;;;;0.10;0.10;;;6.30;99.90;;;;;;4974315;28;20484;-64
2021/12/13 09:09:11;;;;;;;1.65;1.55;;;6.30;99.90;;;;;;4973888;28;20444;-64
2021/12/13 09:11:37;;;;;;;0.15;0.15;;;6.40;99.90;;;;;;4973972;28;20031;-64
2021/12/13 09:14:10;;;;;;;0.30;0.30;;;6.40;99.90;;;;;;4974109;28;20038;-63
2021/12/13 09:16:45;;;;;;;0.35;0.35;;;6.50;99.90;;;;;;4973835;28;20082;-63
2021/12/13 09:19:30;;;;;;;4.80;1.80;;;6.50;99.90;;;;;;4973876;28;20125;-64
2021/12/13 09:22:09;;;;;;;0.35;0.35;;;6.50;99.90;;;;;;4973856;28;20031;-64
2021/12/13 09:24:49;;;;;;;0.52;0.52;;;6.50;99.90;;;;;;4973752;28;20035;-64
2021/12/13 09:27:33;;;;;;;0.65;0.65;;;6.50;99.90;;;;;;4973760;28;20073;-64
2021/12/13 09:30:26;;;;;;;0.73;0.73;;;6.60;99.90;;;;;;4973721;28;20027;-63
2021/12/13 09:33:12;;;;;;;0.40;0.40;;;6.50;99.90;;;;;;4962448;28;20553;-64
2021/12/13 09:35:41;;;;;;;0.10;0.10;;;6.60;99.90;;;;;;4973678;28;20026;-64
2021/12/13 09:38:30;;;;;;;0.10;0.10;;;6.60;99.90;;;;;;4988436;28;20073;-64
2021/12/13 09:41:20;;;;;;;0.68;0.68;;;6.70;99.90;;;;;;4973733;28;20558;-64
2021/12/13 09:44:01;;;;;;;0.60;0.55;;;6.70;99.90;;;;;;4972610;28;20023;-64
2021/12/13 09:46:56;;;;;;;0.85;0.85;;;6.80;99.90;;;;;;4973161;28;20058;-64
2021/12/13 09:49:36;;;;;;;0.50;0.50;;;6.90;99.90;;;;;;4972232;28;20517;-64
2021/12/13 09:52:29;;;;;;;0.47;0.47;;;7.00;99.90;;;;;;4973278;28;20102;-64
2021/12/13 09:55:17;;;;;;;0.73;0.73;;;7.00;99.90;;;;;;4971989;28;20027;-65
2021/12/13 09:58:09;;;;;;;0.38;0.38;;;7.00;99.90;;;;;;4973382;28;20043;-64
2021/12/13 10:00:57;;;;;;;;;;;7.00;99.90;;;;;;4973994;28;20034;-65
2021/12/13 10:03:29;;;;;;;0.35;0.35;;;7.10;99.90;;;;;;4973420;28;19914;-65
2021/12/13 10:06:02;;;;;;;0.80;0.80;;;7.10;99.90;;;;;;4973958;28;20038;-65
2021/12/13 10:08:49;;;;;;;0.90;0.85;;;7.00;99.90;;;;;;4977192;28;20082;-65
2021/12/13 10:11:53;;;;;;;1.30;1.25;;;7.10;99.90;;;;;;4977264;28;20090;-65
2021/12/13 10:14:26;;;;;;;0.40;0.40;;;7.20;99.90;;;;;;4976031;28;20038;-65
2021/12/13 10:16:55;;;;;;;0.20;0.20;;;7.30;99.90;;;;;;4976294;28;20042;-65
2021/12/13 10:19:31;;;;;;;0.77;0.77;;;7.20;99.90;;;;;;4977045;28;20551;-65
2021/12/13 10:21:59;;;;;;;1.33;1.23;;;7.30;99.90;;;;;;4975770;28;20039;-65
2021/12/13 10:24:44;;;;;;;1.75;1.45;;;7.20;99.90;;;;;;4976981;28;20220;-64
2021/12/13 10:27:14;;;;;;;4.68;2.58;;;7.30;99.90;;;;;;4975674;28;20035;-64
2021/12/13 10:29:53;;;;;;;0.25;0.25;;;7.40;99.90;;;;;;4976369;28;20086;-65
2021/12/13 10:32:29;;;;;;;0.00;0.00;;;7.50;99.90;;;;;;4976832;28;20117;-64
2021/12/13 10:35:07;;;;;;;1.67;1.13;;;7.60;99.90;;;;;;4976677;28;20089;-64
2021/12/13 10:37:37;;;;;;;1.00;0.75;;;7.60;99.90;;;;;;4975709;28;20035;-64
2021/12/13 10:40:31;;;;;;;0.82;0.80;;;7.50;99.90;;;;;;4976703;28;20027;-65
2021/12/13 10:43:08;;;;;;;0.38;0.20;;;7.50;99.90;;;;;;4975506;28;20127;-64
2021/12/13 10:46:07;;;;;;;0.55;0.55;;;7.50;99.90;;;;;;4975202;28;20055;-64
2021/12/13 10:48:44;;;;;;;0.13;0.13;;;7.40;99.90;;;;;;4976479;28;20034;-64
2021/12/13 10:51:17;;;;;;;0.20;0.20;;;7.60;99.90;;;;;;4975229;28;20400;-64
2021/12/13 10:53:46;;;;;;;0.47;0.47;;;7.60;99.90;;;;;;4976526;28;20042;-64
2021/12/13 10:56:25;;;;;;;2.00;1.85;;;7.60;99.90;;;;;;4976136;28;20034;-64
2021/12/13 10:58:55;;;;;;;0.20;0.20;;;7.70;99.90;;;;;;4955401;28;20055;-65
2021/12/13 11:01:24;;;;;;;0.10;0.10;;;7.60;99.90;;;;;;4990005;28;20034;-64
2021/12/13 11:03:54;;;;;;;0.30;0.30;;;7.70;99.90;;;;;;4976386;28;20326;-64
2021/12/13 11:06:22;;;;;;;0.25;0.25;;;7.80;99.90;;;;;;4975968;28;20031;-65
2021/12/13 11:08:51;;;;;;;0.10;0.10;;;7.80;99.90;;;;;;4975028;28;20081;-65
2021/12/13 11:11:38;;;;;;;0.35;0.35;;;7.70;99.90;;;;;;4975019;28;20082;-65
2021/12/13 11:14:10;;;;;;;0.10;0.10;;;7.80;99.90;;;;;;4974135;28;20042;-63
2021/12/13 11:16:43;;;;;;;0.20;0.20;;;7.80;99.90;;;;;;4975230;28;20027;-64
2021/12/13 11:19:17;;;;;;;1.25;0.40;;;7.80;99.90;;;;;;4975092;28;20034;-63
2021/12/13 11:21:48;;;;;;;0.28;0.28;;;7.80;99.90;;;;;;4974826;28;20436;-63
2021/12/13 11:24:20;;;;;;;0.88;0.22;;;7.80;99.90;;;;;;4974800;28;20039;-63
2021/12/13 11:26:53;;;;;;;1.42;1.33;;;7.70;99.90;;;;;;4975750;28;20049;-63
2021/12/13 11:29:19;;;;;;;1.13;0.95;;;7.90;99.90;;;;;;4975857;28;20480;-63
2021/12/13 11:31:48;;;;;;;0.08;0.03;;;8.00;99.90;;;;;;4974883;28;20031;-64
2021/12/13 11:35:06;;;;;;;0.28;0.28;;;8.00;99.90;;;;;;4975520;28;20031;-64
2021/12/13 11:38:10;;;;;;;0.08;0.08;;;8.10;99.90;;;;;;4974906;28;20058;-64
2021/12/13 11:41:22;;;;;;;0.57;0.57;;;8.10;99.90;;;;;;4975601;28;20081;-64
2021/12/13 11:44:35;;;;;;;0.20;0.20;;;8.20;99.90;;;;;;4975509;28;20045;-64
2021/12/13 11:47:40;;;;;;;0.77;0.47;;;8.00;99.90;;;;;;4972558;28;20046;-64
2021/12/13 11:50:38;;;;;;;0.50;0.50;;;8.00;99.90;;;;;;4975443;28;20166;-64
2021/12/13 11:53:41;;;;;;;0.13;0.13;;;8.10;99.90;;;;;;4990488;28;20031;-63
2021/12/13 11:56:50;;;;;;;0.40;0.40;;;8.20;99.90;;;;;;4975116;28;20047;-62
2021/12/13 12:00:02;;;;;;;1.00;0.93;;;8.20;99.90;;;;;;4975514;28;20031;-63
2021/12/13 12:02:59;;;;;;;1.92;1.33;;;8.20;99.90;;;;;;4975328;28;20093;-63
2021/12/13 12:05:30;;;;;;;2.05;1.90;;;8.30;99.90;;;;;;4975236;28;20030;-63
2021/12/13 12:08:36;;;;;;;0.15;0.15;;;8.40;99.90;;;;;;4975039;28;20034;-64
2021/12/13 12:11:43;;;;;;;0.08;0.08;;;8.40;99.90;;;;;;4973753;28;20039;-63
2021/12/13 12:14:12;;;;;;;0.45;0.45;;;8.30;99.90;;;;;;4974840;28;20345;-63
2021/12/13 12:16:46;;;;;;;0.00;0.00;;;8.50;99.90;;;;;;4974855;28;20038;-63
2021/12/13 12:19:28;;;;;;;0.13;0.13;;;8.40;99.90;;;;;;4975087;28;20577;-63
2021/12/13 12:22:17;;;;;;;0.43;0.43;;;8.40;99.90;;;;;;4973570;28;20035;-63
2021/12/13 12:24:54;;;;;;;0.30;0.30;;;8.40;99.90;;;;;;4973492;28;20035;-64
2021/12/13 12:27:22;;;;;;;0.73;0.73;;;8.50;99.90;;;;;;4973477;28;20094;-63
2021/12/13 12:29:53;;;;;;;0.20;0.20;;;8.40;99.90;;;;;;4974842;28;20045;-64
2021/12/13 12:32:29;;;;;;;0.43;0.43;;;8.50;99.90;;;;;;4973521;28;20035;-64
2021/12/13 12:35:18;;;;;;;0.30;0.30;;;8.50;99.90;;;;;;4974470;28;20035;-63
2021/12/13 12:37:56;;;;;;;0.10;0.10;;;8.50;99.90;;;;;;4973300;28;20102;-63
2021/12/13 12:41:06;;;;;;;0.10;0.10;;;8.50;99.90;;;;;;4974671;28;20502;-63
2021/12/13 12:43:37;;;;;;;0.65;0.57;;;8.50;99.90;;;;;;4973356;28;20508;-63
2021/12/13 12:46:13;;;;;;;0.17;0.17;;;8.60;99.90;;;;;;4974018;28;20482;-64
2021/12/13 12:48:45;;;;;;;0.95;0.85;;;8.60;99.90;;;;;;4974426;28;20031;-63
2021/12/13 12:51:17;;;;;;;0.28;0.28;;;8.60;99.90;;;;;;4972696;28;20061;-64
2021/12/13 12:54:02;;;;;;;0.22;0.22;;;8.60;99.90;;;;;;4956673;28;20039;-63
2021/12/13 12:56:47;;;;;;;0.00;0.00;;;8.60;99.90;;;;;;4973197;28;20140;-63
2021/12/13 12:59:18;;;;;;;0.08;0.08;;;8.70;99.90;;;;;;4973183;28;20481;-64
2021/12/13 13:01:59;;;;;;;0.10;0.10;;;8.60;99.90;;;;;;4974191;28;20073;-64
2021/12/13 13:04:29;;;;;;;;;;;8.50;99.90;;;;;;4973193;28;20179;-64
2021/12/13 13:07:27;;;;;;;0.00;0.00;;;8.60;99.90;;;;;;4974152;28;19918;-64
2021/12/13 13:09:55;;;;;;;0.00;0.00;;;8.60;99.90;;;;;;4973336;28;20035;-64
2021/12/13 13:12:37;;;;;;;0.38;0.38;;;8.60;99.90;;;;;;4972674;28;20039;-64
2021/12/13 13:15:26;;;;;;;0.60;0.15;;;8.70;99.90;;;;;;4974148;28;20074;-64
2021/12/13 13:18:18;;;;;;;1.13;0.40;;;8.70;99.90;;;;;;4973106;28;20027;-64
2021/12/13 13:20:53;;;;;;;0.32;0.32;;;8.60;99.90;;;;;;4972899;28;20045;-64
2021/12/13 13:23:26;;;;;;;0.85;0.68;;;8.70;99.90;;;;;;4973931;28;20066;-63
2021/12/13 13:26:00;;;;;;;0.20;0.20;;;8.60;99.90;;;;;;4972120;28;20461;-64
2021/12/13 13:28:29;;;;;;;0.00;0.00;;;8.50;99.90;;;;;;4972824;28;20107;-64
2021/12/13 13:31:18;;;;;;;0.75;0.75;;;8.60;99.90;;;;;;4973560;28;20066;-63
2021/12/13 13:33:48;;;;;;;0.25;0.25;;;8.70;99.90;;;;;;4973814;28;20058;-64
2021/12/13 13:36:48;;;;;;;0.00;0.00;;;8.70;99.90;;;;;;4974051;28;20031;-64
2021/12/13 13:40:01;;;;;;;0.22;0.22;;;8.70;99.90;;;;;;4957711;28;20026;-64
2021/12/13 13:42:47;;;;;;;0.35;0.35;;;8.80;99.90;;;;;;4973118;28;20069;-63
2021/12/13 13:45:23;;;;;;;0.10;0.10;;;8.70;99.90;;;;;;4972245;28;20038;-64
2021/12/13 13:48:01;;;;;;;0.20;0.20;;;8.70;99.90;;;;;;4973316;28;20045;-64
2021/12/13 13:50:46;;;;;;;0.13;0.13;;;8.80;99.90;;;;;;4972216;28;20046;-64
2021/12/13 13:53:26;;;;;;;1.75;0.82;;;8.80;99.90;;;;;;4973409;28;20031;-64
2021/12/13 13:56:12;;;;;;;2.17;0.68;;;8.90;99.90;;;;;;4973592;28;20027;-64
2021/12/13 13:58:48;;;;;;;5.10;0.82;;;8.70;99.90;;;;;;4973248;28;20035;-64
2021/12/13 14:01:31;;;;;;;0.30;0.30;;;8.90;99.90;;;;;;4973390;28;20035;-64
2021/12/13 14:04:03;;;;;;;1.02;1.02;;;8.90;99.90;;;;;;4973480;28;20101;-64
2021/12/13 14:06:43;;;;;;;0.15;0.15;;;9.00;99.90;;;;;;4973508;28;20034;-64
2021/12/13 14:09:17;;;;;;;0.70;0.70;;;9.00;99.90;;;;;;4972018;28;20107;-64
2021/12/13 14:12:00;;;;;;;0.00;0.00;;;9.00;99.90;;;;;;4972106;28;20042;-64
2021/12/13 14:15:14;;;;;;;1.55;0.65;;;9.10;99.90;;;;;;4972387;28;20125;-64